Time;durP1;ratioP1;P1;durP2;ratioP2;P2;SDS_P1;SDS_P2;PMS_P1;PMS_P2;Temp;Humidity;BMP_temperature;BMP_pressure;BME280_temperature;BME280_humidity;BME280_pressure;Samples;Min_cycle;Max_cycle;Signal;HPM_P1;HPM_P2
2024/01/06 00:00:36;;;;;;;16.55;12.07;;;3.20;94.80;;;;;;5114352;28;20127;-80
2024/01/06 00:03:02;;;;;;;14.80;11.63;;;3.20;94.80;;;;;;5080380;28;20126;-81
2024/01/06 00:05:28;;;;;;;14.82;11.70;;;3.10;94.60;;;;;;5097348;28;20043;-80
2024/01/06 00:07:54;;;;;;;13.35;11.30;;;3.10;94.60;;;;;;5097061;28;20559;-80
2024/01/06 00:10:19;;;;;;;14.73;10.82;;;3.10;94.70;;;;;;5114302;28;20085;-80
2024/01/06 00:12:45;;;;;;;13.73;10.90;;;3.10;94.60;;;;;;5063828;28;20050;-80
2024/01/06 00:15:11;;;;;;;17.15;11.15;;;3.10;94.60;;;;;;5063462;28;20481;-81
2024/01/06 00:17:37;;;;;;;14.18;9.68;;;3.10;94.60;;;;;;5080433;28;20039;-81
2024/01/06 00:20:04;;;;;;;16.42;9.73;;;3.10;94.70;;;;;;5097007;28;20074;-81
2024/01/06 00:22:30;;;;;;;13.18;11.13;;;3.10;94.70;;;;;;5080580;28;20419;-80
2024/01/06 00:24:55;;;;;;;13.75;9.55;;;3.10;94.60;;;;;;5113858;28;20040;-81
2024/01/06 00:27:21;;;;;;;11.40;8.93;;;3.10;94.60;;;;;;5097053;28;20035;-81
2024/01/06 00:29:47;;;;;;;12.45;9.18;;;3.10;94.60;;;;;;5096886;28;20036;-80
2024/01/06 00:32:13;;;;;;;12.38;9.02;;;3.10;94.50;;;;;;5080051;28;20050;-80
2024/01/06 00:34:39;;;;;;;11.73;8.52;;;3.10;94.50;;;;;;5096907;28;20035;-81
2024/01/06 00:37:04;;;;;;;11.80;9.65;;;3.10;94.40;;;;;;5113682;28;20581;-82
2024/01/06 00:39:30;;;;;;;12.20;8.93;;;3.10;94.30;;;;;;5079008;28;20410;-80
2024/01/06 00:41:56;;;;;;;12.40;9.85;;;3.00;94.40;;;;;;5063428;28;20088;-80
2024/01/06 00:44:21;;;;;;;13.65;9.55;;;3.00;94.40;;;;;;5063567;28;20043;-81
2024/01/06 00:46:47;;;;;;;17.15;10.40;;;3.10;94.40;;;;;;5096619;28;20075;-80
2024/01/06 00:49:13;;;;;;;15.68;10.68;;;2.90;94.40;;;;;;5096540;28;20130;-81
2024/01/06 00:51:38;;;;;;;12.07;9.50;;;3.00;94.40;;;;;;5079697;28;20047;-80
2024/01/06 00:54:04;;;;;;;14.70;10.05;;;3.00;94.40;;;;;;5062747;28;20484;-81
2024/01/06 00:56:30;;;;;;;13.95;9.93;;;3.00;94.50;;;;;;5062813;28;20494;-81
2024/01/06 00:58:55;;;;;;;14.45;9.80;;;3.00;94.60;;;;;;5096478;28;20040;-81
2024/01/06 01:01:21;;;;;;;15.00;9.88;;;3.00;94.60;;;;;;5062785;28;20043;-81
2024/01/06 01:03:47;;;;;;;14.73;10.35;;;3.10;94.70;;;;;;5113564;28;20042;-81
2024/01/06 01:06:13;;;;;;;15.75;10.02;;;3.00;94.60;;;;;;5096377;28;20039;-80
2024/01/06 01:08:38;;;;;;;14.07;10.60;;;3.00;94.60;;;;;;5096037;28;20380;-79
2024/01/06 01:11:04;;;;;;;13.30;10.02;;;3.00;94.70;;;;;;5079431;28;20051;-79
2024/01/06 01:13:30;;;;;;;11.93;9.73;;;3.00;94.70;;;;;;5062768;28;20036;-80
2024/01/06 01:15:56;;;;;;;15.60;10.50;;;3.00;94.70;;;;;;5079062;28;20513;-79
2024/01/06 01:18:22;;;;;;;12.05;10.32;;;3.10;94.90;;;;;;5095867;28;20039;-80
2024/01/06 01:20:47;;;;;;;13.88;9.93;;;3.10;94.90;;;;;;5095832;28;20035;-80
2024/01/06 01:23:13;;;;;;;13.50;10.25;;;3.10;94.80;;;;;;5078988;28;20071;-80
2024/01/06 01:25:39;;;;;;;15.52;10.13;;;3.10;94.90;;;;;;5062229;28;20035;-81
2024/01/06 01:28:04;;;;;;;15.25;9.77;;;3.00;94.70;;;;;;5095968;28;20051;-80
2024/01/06 01:30:32;;;;;;;12.73;8.98;;;3.10;95.00;;;;;;5116644;27;20433;-80
2024/01/06 01:32:58;;;;;;;12.25;8.77;;;3.00;94.90;;;;;;5099717;27;20051;-81
2024/01/06 01:35:24;;;;;;;13.13;9.52;;;3.10;95.00;;;;;;5115888;27;20055;-80
2024/01/06 01:37:50;;;;;;;12.25;9.48;;;3.00;94.90;;;;;;5082401;27;20085;-80
2024/01/06 01:40:15;;;;;;;12.38;8.98;;;3.00;95.00;;;;;;5115971;27;20039;-80
2024/01/06 01:42:43;;;;;;;11.07;8.75;;;3.00;95.00;;;;;;5115920;27;20038;-80
2024/01/06 01:45:09;;;;;;;14.15;9.40;;;3.10;95.00;;;;;;5116215;27;20069;-80
2024/01/06 01:47:36;;;;;;;13.05;9.35;;;3.10;95.00;;;;;;5098943;27;20043;-80
2024/01/06 01:50:02;;;;;;;16.00;8.63;;;3.00;94.90;;;;;;5099041;27;20039;-80
2024/01/06 01:52:28;;;;;;;13.23;9.65;;;3.10;95.00;;;;;;5099074;27;20053;-80
2024/01/06 01:54:54;;;;;;;14.15;10.23;;;3.10;95.00;;;;;;5099018;27;20043;-80
2024/01/06 01:57:22;;;;;;;13.10;9.75;;;3.10;94.90;;;;;;5081877;27;20042;-80
2024/01/06 01:59:49;;;;;;;12.40;8.85;;;3.10;94.90;;;;;;5099068;28;20444;-80
2024/01/06 02:02:15;;;;;;;12.80;9.57;;;3.10;94.80;;;;;;5116013;28;20399;-80
2024/01/06 02:04:41;;;;;;;16.25;9.90;;;3.10;94.90;;;;;;5082404;28;20042;-80
2024/01/06 02:07:07;;;;;;;15.98;10.05;;;3.10;94.80;;;;;;5115618;28;20043;-80
2024/01/06 02:09:33;;;;;;;13.55;10.25;;;3.10;94.80;;;;;;5116354;28;20039;-80
2024/01/06 02:11:59;;;;;;;14.85;9.60;;;3.10;94.90;;;;;;5115948;28;20485;-80
2024/01/06 02:14:24;;;;;;;15.82;9.90;;;3.00;94.90;;;;;;5132566;28;20108;-80
2024/01/06 02:16:50;;;;;;;14.90;9.52;;;3.00;94.80;;;;;;5098986;28;20046;-80
2024/01/06 02:19:17;;;;;;;15.40;10.30;;;3.00;94.90;;;;;;5099131;28;20031;-80
2024/01/06 02:21:44;;;;;;;12.02;9.60;;;3.00;94.80;;;;;;5099085;28;20031;-80
2024/01/06 02:24:10;;;;;;;15.98;10.07;;;3.00;94.80;;;;;;5098580;28;20068;-79
2024/01/06 02:26:36;;;;;;;14.57;10.20;;;3.00;94.80;;;;;;5115481;28;20046;-80
2024/01/06 02:29:01;;;;;;;14.35;10.68;;;3.00;94.90;;;;;;5098310;28;20399;-80
2024/01/06 02:31:28;;;;;;;18.60;10.48;;;3.00;94.90;;;;;;5115724;28;20032;-80
2024/01/06 02:33:53;;;;;;;11.90;9.60;;;3.00;94.90;;;;;;5115411;28;20035;-79
2024/01/06 02:36:19;;;;;;;14.80;11.00;;;3.00;95.00;;;;;;5098135;28;20059;-80
2024/01/06 02:38:45;;;;;;;14.93;10.10;;;3.00;94.90;;;;;;5115186;28;20368;-80
2024/01/06 02:41:11;;;;;;;14.88;10.18;;;3.10;94.90;;;;;;5098480;28;20077;-79
2024/01/06 02:43:36;;;;;;;19.60;10.50;;;3.00;95.00;;;;;;5098376;28;20038;-80
2024/01/06 02:46:02;;;;;;;12.27;9.52;;;3.10;95.00;;;;;;5115613;28;20047;-80
2024/01/06 02:48:30;;;;;;;16.80;10.45;;;3.10;95.00;;;;;;5115573;28;20031;-80
2024/01/06 02:50:56;;;;;;;15.38;10.05;;;3.10;94.90;;;;;;5099002;28;20047;-81
2024/01/06 02:53:22;;;;;;;12.07;9.38;;;3.20;95.00;;;;;;5132412;28;20043;-80
2024/01/06 02:55:47;;;;;;;17.20;10.32;;;3.10;94.90;;;;;;5098493;28;20043;-80
2024/01/06 02:58:13;;;;;;;17.33;10.35;;;3.10;94.70;;;;;;5115204;28;20042;-81
2024/01/06 03:00:39;;;;;;;19.08;12.60;;;3.10;94.70;;;;;;5098292;28;20128;-80
2024/01/06 03:03:05;;;;;;;17.63;11.52;;;3.10;94.70;;;;;;5134783;27;20042;-81
2024/01/06 03:05:31;;;;;;;17.02;12.02;;;3.10;94.80;;;;;;5136022;27;20126;-80
2024/01/06 03:07:57;;;;;;;19.50;10.50;;;3.10;94.80;;;;;;5102089;27;20051;-80
2024/01/06 03:10:22;;;;;;;20.67;10.73;;;3.10;94.90;;;;;;5102256;27;20042;-80
2024/01/06 03:12:48;;;;;;;18.13;11.35;;;3.10;94.90;;;;;;5119136;27;20415;-80
2024/01/06 03:15:14;;;;;;;14.88;10.70;;;3.10;94.90;;;;;;5101815;27;20042;-80
2024/01/06 03:17:40;;;;;;;14.25;10.73;;;3.10;94.90;;;;;;5135794;27;20039;-80
2024/01/06 03:20:07;;;;;;;16.50;10.63;;;3.10;94.90;;;;;;5135952;27;20130;-80
2024/01/06 03:22:33;;;;;;;15.15;9.05;;;3.10;94.90;;;;;;5102182;27;20031;-80
2024/01/06 03:24:58;;;;;;;16.75;10.57;;;3.10;95.00;;;;;;5101886;27;20038;-80
2024/01/06 03:27:24;;;;;;;14.15;9.63;;;3.10;95.00;;;;;;5084735;27;20506;-80
2024/01/06 03:29:50;;;;;;;18.08;10.98;;;3.10;94.90;;;;;;5118792;27;20074;-80
2024/01/06 03:32:15;;;;;;;16.15;9.70;;;3.10;94.90;;;;;;5135926;27;20043;-81
2024/01/06 03:34:42;;;;;;;15.90;10.13;;;3.10;95.00;;;;;;5101180;27;20550;-79
2024/01/06 03:37:07;;;;;;;15.45;10.23;;;3.10;95.00;;;;;;5118390;27;20055;-80
2024/01/06 03:39:33;;;;;;;17.10;10.77;;;3.10;95.00;;;;;;5135731;27;20121;-80
2024/01/06 03:42:00;;;;;;;13.45;9.77;;;3.10;95.00;;;;;;5101427;27;20528;-80
2024/01/06 03:44:30;;;;;;;13.98;9.30;;;3.10;95.00;;;;;;5101520;27;20126;-80
2024/01/06 03:46:57;;;;;;;13.77;9.40;;;3.10;95.00;;;;;;5101775;27;20039;-80
2024/01/06 03:49:23;;;;;;;15.95;9.75;;;3.00;95.00;;;;;;5084495;27;20095;-80
2024/01/06 03:51:49;;;;;;;14.27;9.35;;;3.10;95.10;;;;;;5101452;27;20391;-80
2024/01/06 03:54:15;;;;;;;18.77;9.48;;;3.10;95.10;;;;;;5118055;27;20100;-79
2024/01/06 03:56:41;;;;;;;19.73;10.05;;;3.00;95.10;;;;;;5100950;27;20071;-80
2024/01/06 03:59:07;;;;;;;16.13;9.45;;;3.10;95.10;;;;;;5117946;27;20039;-80
2024/01/06 04:01:34;;;;;;;13.63;9.52;;;3.10;95.20;;;;;;5135340;27;20414;-80
2024/01/06 04:04:02;;;;;;;12.70;10.15;;;3.10;95.00;;;;;;5118437;27;20054;-80
2024/01/06 04:06:28;;;;;;;15.23;9.93;;;3.10;95.20;;;;;;5117840;27;20042;-79
2024/01/06 04:08:54;;;;;;;20.63;11.82;;;3.00;95.10;;;;;;5118019;27;20035;-80
2024/01/06 04:11:21;;;;;;;13.63;9.45;;;3.00;95.10;;;;;;5100871;27;20515;-80
2024/01/06 04:13:47;;;;;;;14.85;9.88;;;3.10;95.20;;;;;;5116757;27;20481;-81
2024/01/06 04:16:12;;;;;;;13.27;9.32;;;3.00;95.30;;;;;;5100507;27;20050;-81
2024/01/06 04:18:38;;;;;;;14.23;8.65;;;3.00;95.30;;;;;;5134551;27;20387;-80
2024/01/06 04:21:08;;;;;;;19.50;10.07;;;3.10;95.40;;;;;;5117786;27;20035;-80
2024/01/06 04:23:34;;;;;;;13.77;9.77;;;3.00;95.30;;;;;;5101211;27;20023;-80
2024/01/06 04:26:01;;;;;;;15.57;9.00;;;3.10;95.40;;;;;;5134577;27;20047;-80
2024/01/06 04:28:27;;;;;;;17.85;9.32;;;3.00;95.30;;;;;;5117235;27;20079;-80
2024/01/06 04:30:53;;;;;;;14.20;8.90;;;3.00;95.40;;;;;;5100439;27;20091;-80
2024/01/06 04:33:19;;;;;;;17.65;9.75;;;3.10;95.40;;;;;;5134401;27;20511;-80
2024/01/06 04:35:45;;;;;;;16.77;10.25;;;3.00;95.30;;;;;;5117006;27;20086;-80
2024/01/06 04:38:10;;;;;;;17.48;9.98;;;3.00;95.40;;;;;;5134444;27;20039;-80
2024/01/06 04:40:36;;;;;;;15.93;9.52;;;3.00;95.40;;;;;;5083257;27;20035;-80
2024/01/06 04:43:03;;;;;;;15.23;9.43;;;3.00;95.40;;;;;;5117417;27;20043;-80
2024/01/06 04:45:29;;;;;;;17.75;9.27;;;3.00;95.40;;;;;;5116961;27;20388;-80
2024/01/06 04:47:55;;;;;;;13.80;9.18;;;3.00;95.30;;;;;;5117182;27;20047;-80
2024/01/06 04:50:20;;;;;;;16.10;9.32;;;3.00;95.40;;;;;;5117236;27;20479;-80
2024/01/06 04:52:46;;;;;;;15.00;8.65;;;3.00;95.40;;;;;;5083322;27;20078;-80
2024/01/06 04:55:12;;;;;;;24.55;8.70;;;3.00;95.40;;;;;;5099816;27;20035;-80
2024/01/06 04:57:38;;;;;;;13.40;8.15;;;3.00;95.30;;;;;;5083285;27;20043;-81
2024/01/06 05:00:04;;;;;;;13.88;9.75;;;3.00;95.50;;;;;;5133893;27;20038;-80
2024/01/06 05:02:30;;;;;;;17.70;9.30;;;3.10;95.50;;;;;;5116574;27;20104;-80
2024/01/06 05:04:56;;;;;;;16.30;9.90;;;3.00;95.50;;;;;;5133729;27;20035;-80
2024/01/06 05:07:21;;;;;;;19.08;10.35;;;3.00;95.40;;;;;;5099639;27;20043;-80
2024/01/06 05:09:47;;;;;;;15.35;9.40;;;3.00;95.50;;;;;;5099617;27;20039;-80
2024/01/06 05:12:13;;;;;;;16.90;9.77;;;3.00;95.40;;;;;;5116618;27;20045;-80
2024/01/06 05:14:38;;;;;;;13.95;10.05;;;3.00;95.40;;;;;;5133495;27;20043;-80
2024/01/06 05:17:04;;;;;;;14.93;9.15;;;2.90;95.20;;;;;;5082550;27;20126;-80
2024/01/06 05:19:30;;;;;;;17.13;9.68;;;3.00;95.40;;;;;;5116363;27;20041;-80
2024/01/06 05:21:56;;;;;;;17.83;11.00;;;3.00;95.40;;;;;;5116511;27;20126;-79
2024/01/06 05:24:22;;;;;;;17.52;10.50;;;3.00;95.30;;;;;;5099410;27;20093;-81
2024/01/06 05:26:48;;;;;;;13.65;9.20;;;3.00;95.50;;;;;;5099098;27;20034;-80
2024/01/06 05:29:14;;;;;;;16.33;10.45;;;3.00;95.50;;;;;;5082283;27;20038;-80
2024/01/06 05:31:39;;;;;;;16.90;9.95;;;3.00;95.20;;;;;;5116194;27;20141;-80
2024/01/06 05:34:05;;;;;;;14.30;9.85;;;3.00;95.30;;;;;;5099375;27;20125;-80
2024/01/06 05:36:32;;;;;;;18.90;10.05;;;3.00;95.40;;;;;;5115879;27;20495;-80
2024/01/06 05:38:58;;;;;;;15.27;9.55;;;3.00;95.40;;;;;;5116172;27;20076;-80
2024/01/06 05:41:24;;;;;;;16.67;8.95;;;3.00;95.30;;;;;;5115953;27;20042;-80
2024/01/06 05:43:49;;;;;;;14.07;10.00;;;3.00;95.30;;;;;;5116027;27;20225;-80
2024/01/06 05:46:22;;;;;;;12.95;9.35;;;3.00;95.50;;;;;;5098996;27;20047;-80
2024/01/06 05:48:48;;;;;;;16.88;9.77;;;3.00;95.40;;;;;;5132938;27;20047;-80
2024/01/06 05:51:14;;;;;;;12.15;9.02;;;3.00;95.30;;;;;;5098962;27;20050;-80
2024/01/06 05:53:41;;;;;;;18.38;9.88;;;3.00;95.40;;;;;;5082057;28;20042;-80
2024/01/06 05:56:08;;;;;;;16.67;10.32;;;3.00;95.40;;;;;;5115848;27;20043;-80
2024/01/06 05:58:34;;;;;;;16.90;9.32;;;3.00;95.40;;;;;;5115691;27;20506;-80
2024/01/06 06:01:00;;;;;;;15.60;9.68;;;3.00;95.40;;;;;;5115820;27;20035;-80
2024/01/06 06:03:26;;;;;;;24.33;10.13;;;3.00;95.40;;;;;;5098956;27;20038;-80
2024/01/06 06:05:52;;;;;;;15.85;9.57;;;3.00;95.40;;;;;;5115707;28;20039;-79
2024/01/06 06:08:18;;;;;;;11.40;8.20;;;3.00;95.40;;;;;;5115563;27;20095;-79
2024/01/06 06:11:00;;;;;;;14.07;8.38;;;3.00;95.40;;;;;;5099120;27;20043;-80
2024/01/06 06:13:27;;;;;;;17.25;9.50;;;3.00;95.40;;;;;;5118104;28;20043;-80
2024/01/06 06:15:53;;;;;;;16.75;9.15;;;3.00;95.40;;;;;;5115829;28;20046;-80
2024/01/06 06:18:18;;;;;;;13.75;9.45;;;3.00;95.40;;;;;;5098539;28;20036;-80
2024/01/06 06:20:44;;;;;;;16.40;9.02;;;3.00;95.40;;;;;;5098609;28;20035;-79
2024/01/06 06:23:10;;;;;;;19.27;9.77;;;3.00;95.50;;;;;;5098446;28;20051;-80
2024/01/06 06:25:38;;;;;;;14.95;9.93;;;3.10;95.30;;;;;;5116144;28;20047;-80
2024/01/06 06:28:04;;;;;;;13.90;8.90;;;3.00;95.30;;;;;;5115963;28;20047;-79
2024/01/06 06:30:30;;;;;;;14.23;9.50;;;3.10;95.50;;;;;;5098984;28;20130;-80
2024/01/06 06:32:55;;;;;;;15.93;9.57;;;3.10;95.50;;;;;;5115508;28;20474;-80
2024/01/06 06:35:23;;;;;;;17.77;9.50;;;3.10;95.40;;;;;;5081727;28;20043;-80
2024/01/06 06:37:49;;;;;;;17.27;8.52;;;3.10;95.40;;;;;;5118099;27;20403;-80
2024/01/06 06:40:15;;;;;;;12.77;8.70;;;3.10;95.40;;;;;;5102973;27;20036;-80
2024/01/06 06:42:41;;;;;;;16.83;9.88;;;3.10;95.40;;;;;;5120052;27;20038;-79
2024/01/06 06:45:07;;;;;;;17.63;9.13;;;3.10;95.20;;;;;;5136835;27;20510;-79
2024/01/06 06:47:33;;;;;;;17.52;9.32;;;3.10;95.30;;;;;;5119962;27;20039;-80
2024/01/06 06:49:59;;;;;;;17.35;9.73;;;3.10;95.20;;;;;;5119986;27;20540;-80
2024/01/06 06:52:24;;;;;;;18.02;9.05;;;3.10;95.20;;;;;;5119699;27;20072;-80
2024/01/06 06:54:52;;;;;;;14.27;9.15;;;3.10;95.20;;;;;;5119610;27;20080;-80
2024/01/06 06:57:18;;;;;;;14.63;9.02;;;3.10;95.10;;;;;;5136692;27;20071;-80
2024/01/06 06:59:44;;;;;;;16.35;9.55;;;3.10;95.00;;;;;;5119825;27;20063;-80
2024/01/06 07:02:10;;;;;;;13.93;8.80;;;3.10;95.00;;;;;;5119501;27;20035;-80
2024/01/06 07:04:36;;;;;;;15.15;8.85;;;3.10;94.90;;;;;;5119195;27;20372;-80
2024/01/06 07:07:02;;;;;;;17.08;9.50;;;3.10;94.80;;;;;;5136286;27;20054;-80
2024/01/06 07:09:27;;;;;;;15.25;9.27;;;3.10;94.90;;;;;;5136308;27;20043;-80
2024/01/06 07:11:53;;;;;;;17.77;10.48;;;3.10;94.90;;;;;;5102496;27;20039;-80
2024/01/06 07:14:19;;;;;;;14.40;10.25;;;3.10;94.90;;;;;;5102319;27;20043;-80
2024/01/06 07:16:45;;;;;;;16.67;9.65;;;3.10;94.80;;;;;;5100497;27;20071;-80
2024/01/06 07:19:10;;;;;;;15.25;9.93;;;3.10;94.90;;;;;;5134385;27;20035;-80
2024/01/06 07:21:37;;;;;;;15.85;11.05;;;3.10;94.90;;;;;;5118716;27;20388;-80
2024/01/06 07:24:03;;;;;;;18.40;10.23;;;3.10;94.90;;;;;;5118674;27;20035;-80
2024/01/06 07:26:28;;;;;;;14.15;10.27;;;3.10;94.90;;;;;;5101845;27;20195;-80
2024/01/06 07:28:55;;;;;;;15.45;9.80;;;3.10;94.80;;;;;;5084914;27;20043;-80
2024/01/06 07:31:20;;;;;;;17.83;9.80;;;3.20;94.90;;;;;;5118822;27;20407;-80
2024/01/06 07:33:46;;;;;;;14.80;10.93;;;3.20;94.80;;;;;;5118450;27;20039;-80
2024/01/06 07:36:12;;;;;;;13.85;9.48;;;3.10;94.80;;;;;;5101182;27;20146;-80
2024/01/06 07:38:38;;;;;;;19.08;10.55;;;3.10;94.90;;;;;;5135674;27;20135;-80
2024/01/06 07:41:06;;;;;;;15.60;9.98;;;3.20;94.90;;;;;;5101311;27;20066;-80
2024/01/06 07:43:32;;;;;;;13.77;10.00;;;3.20;94.80;;;;;;5118169;27;20493;-80
2024/01/06 07:45:58;;;;;;;14.95;10.45;;;3.20;94.80;;;;;;5101120;27;20121;-80
2024/01/06 07:48:23;;;;;;;16.52;11.07;;;3.20;94.80;;;;;;5118057;27;20126;-80
2024/01/06 07:50:49;;;;;;;18.83;11.48;;;3.10;94.80;;;;;;5118337;27;20082;-81
2024/01/06 07:53:15;;;;;;;13.82;9.90;;;3.30;94.90;;;;;;5084189;27;20043;-80
2024/01/06 07:55:41;;;;;;;13.32;9.82;;;3.20;94.80;;;;;;5100994;27;20046;-80
2024/01/06 07:58:06;;;;;;;13.07;8.90;;;3.20;94.80;;;;;;5118015;27;20069;-80
2024/01/06 08:00:32;;;;;;;20.65;10.43;;;3.20;94.80;;;;;;5101210;27;20035;-80
2024/01/06 08:02:58;;;;;;;15.30;9.48;;;3.20;94.80;;;;;;5135087;27;20416;-80
2024/01/06 08:05:24;;;;;;;14.27;8.98;;;3.20;94.70;;;;;;5101060;27;20088;-80
2024/01/06 08:07:51;;;;;;;12.93;9.55;;;3.30;94.70;;;;;;5101098;27;20069;-81
2024/01/06 08:10:17;;;;;;;22.02;10.45;;;3.20;94.70;;;;;;5118008;27;20057;-80
2024/01/06 08:12:43;;;;;;;15.90;9.10;;;3.20;94.60;;;;;;5117795;27;20471;-80
2024/01/06 08:15:09;;;;;;;19.50;9.48;;;3.20;94.60;;;;;;5117603;27;20041;-80
2024/01/06 08:17:36;;;;;;;17.85;10.35;;;3.20;94.60;;;;;;5117714;27;20535;-80
2024/01/06 08:20:03;;;;;;;12.95;8.43;;;3.30;94.70;;;;;;5117585;27;20043;-81
2024/01/06 08:22:28;;;;;;;13.55;8.77;;;3.30;94.60;;;;;;5117754;27;20046;-80
2024/01/06 08:24:54;;;;;;;14.77;8.80;;;3.30;94.60;;;;;;5100424;27;20043;-80
2024/01/06 08:27:21;;;;;;;14.05;9.20;;;3.30;94.60;;;;;;5100288;27;20047;-80
2024/01/06 08:29:47;;;;;;;17.48;9.85;;;3.30;94.60;;;;;;5083935;27;20376;-80
2024/01/06 08:32:14;;;;;;;15.45;9.68;;;3.30;94.60;;;;;;5100489;27;20045;-80
2024/01/06 08:34:40;;;;;;;16.38;9.32;;;3.30;94.50;;;;;;5134180;27;20410;-80
2024/01/06 08:37:06;;;;;;;14.25;8.38;;;3.30;94.50;;;;;;5116634;27;20051;-82
2024/01/06 08:39:32;;;;;;;12.73;9.65;;;3.30;94.50;;;;;;5099762;27;20042;-82
2024/01/06 08:41:57;;;;;;;13.27;9.48;;;3.30;94.40;;;;;;5133859;27;20037;-80
2024/01/06 08:44:23;;;;;;;12.52;10.10;;;3.30;94.60;;;;;;5116925;27;20039;-81
2024/01/06 08:46:49;;;;;;;16.73;9.85;;;3.30;94.60;;;;;;5099592;27;20037;-80
2024/01/06 08:49:15;;;;;;;18.83;11.50;;;3.30;94.60;;;;;;5100003;27;20483;-80
2024/01/06 08:51:41;;;;;;;14.80;9.65;;;3.20;94.40;;;;;;5116722;27;20046;-80
2024/01/06 08:54:06;;;;;;;19.25;10.60;;;3.30;94.60;;;;;;5134203;27;20046;-80
2024/01/06 08:56:33;;;;;;;16.10;10.18;;;3.30;94.60;;;;;;5116446;27;20074;-80
2024/01/06 08:58:59;;;;;;;14.27;10.02;;;3.30;94.70;;;;;;5116621;27;20392;-80
2024/01/06 09:01:25;;;;;;;16.02;10.45;;;3.30;94.60;;;;;;5115784;27;20038;-80
2024/01/06 09:03:50;;;;;;;21.35;11.73;;;3.30;94.60;;;;;;5116232;27;20039;-80
2024/01/06 09:06:16;;;;;;;15.60;11.10;;;3.30;94.70;;;;;;5099934;27;20045;-80
2024/01/06 09:08:42;;;;;;;15.95;10.35;;;3.30;94.70;;;;;;5116617;27;20439;-80
2024/01/06 09:11:08;;;;;;;15.73;11.30;;;3.30;94.70;;;;;;5116752;27;20046;-80
2024/01/06 09:13:33;;;;;;;17.23;10.93;;;3.20;94.60;;;;;;5082603;27;20403;-80
2024/01/06 09:16:00;;;;;;;13.57;9.95;;;3.20;94.60;;;;;;5116377;27;20104;-80
2024/01/06 09:18:27;;;;;;;15.80;11.68;;;3.30;94.70;;;;;;5099542;27;20039;-80
2024/01/06 09:20:53;;;;;;;18.95;12.00;;;3.20;94.60;;;;;;5099615;27;20057;-82
2024/01/06 09:23:20;;;;;;;16.15;10.63;;;3.30;94.70;;;;;;5133483;27;20036;-80
2024/01/06 09:25:46;;;;;;;17.05;11.25;;;3.30;94.80;;;;;;5133596;27;20043;-81
2024/01/06 09:28:11;;;;;;;15.60;10.20;;;3.30;94.70;;;;;;5116055;27;20046;-80
2024/01/06 09:30:37;;;;;;;17.30;10.23;;;3.30;94.80;;;;;;5099491;27;20046;-80
2024/01/06 09:33:03;;;;;;;15.45;12.02;;;3.30;94.60;;;;;;5116625;27;20499;-80
2024/01/06 09:35:29;;;;;;;19.55;10.90;;;3.30;94.60;;;;;;5116183;27;20039;-81
2024/01/06 09:37:55;;;;;;;14.82;11.32;;;3.20;94.50;;;;;;5099658;27;20051;-80
2024/01/06 09:40:23;;;;;;;16.02;11.57;;;3.30;94.60;;;;;;5116593;27;20509;-80
2024/01/06 09:42:50;;;;;;;17.60;10.88;;;3.30;94.60;;;;;;5117000;27;20043;-81
2024/01/06 09:45:15;;;;;;;16.27;11.15;;;3.30;94.50;;;;;;5099792;27;20109;-80
2024/01/06 09:47:41;;;;;;;19.20;10.60;;;3.30;94.50;;;;;;5133737;27;20039;-81
2024/01/06 09:50:12;;;;;;;18.08;11.40;;;3.30;94.50;;;;;;5116399;27;20035;-79
2024/01/06 09:52:41;;;;;;;17.10;10.82;;;3.30;94.60;;;;;;5133494;27;20091;-80
2024/01/06 09:55:11;;;;;;;14.65;10.95;;;3.30;94.50;;;;;;5116168;27;20042;-81
2024/01/06 09:57:37;;;;;;;19.98;11.68;;;3.30;94.50;;;;;;5116187;28;20131;-80
2024/01/06 10:00:04;;;;;;;18.02;10.63;;;3.30;94.50;;;;;;5099316;27;20074;-81
2024/01/06 10:02:31;;;;;;;12.95;10.10;;;3.30;94.50;;;;;;5116184;27;20095;-80
2024/01/06 10:04:58;;;;;;;18.13;10.10;;;3.40;94.50;;;;;;5116611;27;20043;-80
2024/01/06 10:07:25;;;;;;;17.45;10.55;;;3.40;94.40;;;;;;5116428;28;20035;-81
2024/01/06 10:09:55;;;;;;;14.25;10.32;;;3.30;94.30;;;;;;5116315;28;20435;-80
2024/01/06 10:12:25;;;;;;;15.32;9.98;;;3.30;94.30;;;;;;5115308;28;20097;-81
2024/01/06 10:14:51;;;;;;;16.75;10.25;;;3.40;94.50;;;;;;5116038;28;20031;-81
2024/01/06 10:17:18;;;;;;;18.08;10.40;;;3.40;94.20;;;;;;5115947;28;20091;-81
2024/01/06 10:19:50;;;;;;;17.48;10.52;;;3.40;94.20;;;;;;5116439;28;20483;-81
2024/01/06 10:22:16;;;;;;;15.98;10.68;;;3.40;94.10;;;;;;5116459;28;20502;-81
2024/01/06 10:24:42;;;;;;;17.00;10.05;;;3.40;94.10;;;;;;5099040;28;20050;-81
2024/01/06 10:27:08;;;;;;;16.88;9.65;;;3.40;94.10;;;;;;5098887;28;20035;-81
2024/01/06 10:29:34;;;;;;;15.32;10.85;;;3.40;94.00;;;;;;5115948;28;20049;-81
2024/01/06 10:32:00;;;;;;;18.98;10.30;;;3.40;94.10;;;;;;5099659;28;20382;-82
2024/01/06 10:34:27;;;;;;;18.30;10.48;;;3.40;94.00;;;;;;5116031;28;20495;-81
2024/01/06 10:36:53;;;;;;;15.75;9.75;;;3.40;94.00;;;;;;5132266;28;20487;-81
2024/01/06 10:39:20;;;;;;;14.07;9.70;;;3.40;93.80;;;;;;5115809;28;20058;-81
2024/01/06 10:41:48;;;;;;;18.27;11.30;;;3.40;93.70;;;;;;5115874;28;20050;-81
2024/01/06 10:44:15;;;;;;;14.68;11.25;;;3.40;93.70;;;;;;5133110;28;20028;-81
2024/01/06 10:46:42;;;;;;;19.08;10.32;;;3.40;93.50;;;;;;5099345;28;20047;-81
2024/01/06 10:49:11;;;;;;;17.95;10.27;;;3.30;93.70;;;;;;5082221;28;20031;-81
2024/01/06 10:51:38;;;;;;;20.38;10.13;;;3.40;93.70;;;;;;5115243;28;20078;-81
2024/01/06 10:54:05;;;;;;;18.90;10.15;;;3.40;93.70;;;;;;5115493;28;20035;-81
2024/01/06 10:56:36;;;;;;;16.63;10.80;;;3.40;93.50;;;;;;5115328;28;20096;-81
2024/01/06 10:59:03;;;;;;;15.18;10.07;;;3.40;93.50;;;;;;5115467;28;20108;-81
2024/01/06 11:01:30;;;;;;;16.50;9.85;;;3.40;93.50;;;;;;5115295;28;20316;-81
2024/01/06 11:03:56;;;;;;;13.20;10.02;;;3.40;93.40;;;;;;5098237;28;20064;-81
2024/01/06 11:06:23;;;;;;;15.57;10.07;;;3.40;93.30;;;;;;5115149;28;20049;-81
2024/01/06 11:09:07;;;;;;;15.10;10.25;;;3.40;93.40;;;;;;5098329;28;20050;-81
2024/01/06 11:11:34;;;;;;;13.70;9.07;;;3.40;93.30;;;;;;5115578;28;20035;-81
2024/01/06 11:14:26;;;;;;;18.52;10.27;;;3.40;93.40;;;;;;5115294;28;20047;-81
2024/01/06 11:16:52;;;;;;;18.65;10.75;;;3.40;93.40;;;;;;5098079;28;20047;-81
2024/01/06 11:19:43;;;;;;;14.32;9.70;;;3.40;93.40;;;;;;5115308;28;20121;-81
2024/01/06 11:22:20;;;;;;;20.38;9.32;;;3.50;93.50;;;;;;5115502;28;20041;-81
2024/01/06 11:24:56;;;;;;;13.63;8.60;;;3.50;93.40;;;;;;5119188;27;20117;-81
2024/01/06 11:27:30;;;;;;;12.55;8.60;;;3.50;93.30;;;;;;5102989;27;20037;-81
2024/01/06 11:30:00;;;;;;;12.85;9.05;;;3.40;93.20;;;;;;5135907;27;20126;-81
2024/01/06 11:32:35;;;;;;;14.20;8.90;;;3.40;93.30;;;;;;5119068;27;20035;-81
2024/01/06 11:35:14;;;;;;;16.27;10.50;;;3.40;93.20;;;;;;5101933;27;20046;-81
2024/01/06 11:37:40;;;;;;;13.98;8.90;;;3.40;93.20;;;;;;5118371;27;20495;-80
2024/01/06 11:40:21;;;;;;;11.90;8.38;;;3.40;93.00;;;;;;5135743;27;20057;-80
2024/01/06 11:42:48;;;;;;;13.38;8.65;;;3.40;93.10;;;;;;5118455;27;20039;-80
2024/01/06 11:45:15;;;;;;;15.20;8.13;;;3.30;93.00;;;;;;5098846;27;20035;-81
2024/01/06 11:47:47;;;;;;;13.95;8.20;;;3.40;93.10;;;;;;5118263;27;20106;-80
2024/01/06 11:50:13;;;;;;;11.27;8.02;;;3.40;93.10;;;;;;5118348;27;20039;-80
2024/01/06 11:52:39;;;;;;;12.80;8.88;;;3.30;93.00;;;;;;5118181;27;20039;-80
2024/01/06 11:55:08;;;;;;;14.43;8.93;;;3.40;93.10;;;;;;5117930;27;20061;-80
2024/01/06 11:57:35;;;;;;;15.50;9.02;;;3.40;93.10;;;;;;5118063;27;20038;-80
2024/01/06 12:00:00;;;;;;;12.32;8.30;;;3.30;92.80;;;;;;5117995;27;20468;-83
2024/01/06 12:02:26;;;;;;;12.45;8.75;;;3.30;93.00;;;;;;5135074;27;20031;-80
2024/01/06 12:04:53;;;;;;;12.85;8.05;;;3.30;93.00;;;;;;5117914;27;20049;-80
2024/01/06 12:07:20;;;;;;;11.18;8.48;;;3.30;93.00;;;;;;5135002;27;20487;-81
2024/01/06 12:09:49;;;;;;;13.98;8.75;;;3.30;93.00;;;;;;5117761;27;20495;-80
2024/01/06 12:12:16;;;;;;;10.35;7.70;;;3.40;93.20;;;;;;5118425;27;20089;-80
2024/01/06 12:14:42;;;;;;;10.18;7.28;;;3.40;93.10;;;;;;5117627;27;20463;-81
2024/01/06 12:17:09;;;;;;;15.25;8.02;;;3.30;93.00;;;;;;5117202;27;20035;-80
2024/01/06 12:19:34;;;;;;;10.32;7.45;;;3.40;93.00;;;;;;5117040;27;20084;-81
2024/01/06 12:22:02;;;;;;;10.27;7.40;;;3.40;93.00;;;;;;5116907;27;20122;-81
2024/01/06 12:24:28;;;;;;;11.95;8.10;;;3.30;93.00;;;;;;5117843;27;20071;-81
2024/01/06 12:26:57;;;;;;;10.50;8.05;;;3.30;92.90;;;;;;5134540;27;20047;-81
2024/01/06 12:29:27;;;;;;;8.55;6.90;;;3.30;92.90;;;;;;5116568;27;20043;-81
2024/01/06 12:31:53;;;;;;;11.00;7.28;;;3.30;92.90;;;;;;5116132;27;20453;-80
2024/01/06 12:34:18;;;;;;;10.95;7.53;;;3.30;92.90;;;;;;5114789;28;20035;-80
2024/01/06 12:36:46;;;;;;;12.00;8.07;;;3.30;92.90;;;;;;5116638;27;20078;-80
2024/01/06 12:39:16;;;;;;;13.20;8.85;;;3.20;92.40;;;;;;5100774;27;20043;-80